createdAt,value
2022-11-12T00:04:27.261Z,8.33
2022-11-12T00:09:32.389Z,5.27
2022-11-12T00:14:36.146Z,5.03
2022-11-12T00:19:39.849Z,6.40
2022-11-12T00:24:44.831Z,4.83
2022-11-12T00:29:48.436Z,5.00
2022-11-12T00:34:52.037Z,6.20
2022-11-12T00:39:57.028Z,5.37
2022-11-12T00:45:00.698Z,6.60
2022-11-12T00:50:04.276Z,6.33
2022-11-12T00:55:09.929Z,6.23
2022-11-12T01:00:17.464Z,6.73
2022-11-12T01:05:21.545Z,7.97
2022-11-12T01:10:26.754Z,5.63
2022-11-12T01:15:30.341Z,5.30
2022-11-12T01:20:33.923Z,5.67
2022-11-12T01:25:40.984Z,4.97
2022-11-12T01:30:44.623Z,6.57
2022-11-12T01:35:48.345Z,5.60
2022-11-12T01:40:53.466Z,4.93
2022-11-12T01:45:58.098Z,13.73
2022-11-12T01:51:05.238Z,7.40
2022-11-12T01:56:11.076Z,6.10
2022-11-12T02:01:14.760Z,4.83
2022-11-12T02:06:19.088Z,5.47
2022-11-12T02:11:24.321Z,5.20
2022-11-12T02:16:30.948Z,6.77
2022-11-12T02:21:36.569Z,4.77
2022-11-12T02:26:44.555Z,5.90
2022-11-12T02:31:48.292Z,4.40
2022-11-12T02:36:53.427Z,7.10
2022-11-12T02:41:57.070Z,4.80
2022-11-12T02:47:00.745Z,7.50
2022-11-12T02:52:06.310Z,4.93
2022-11-12T02:57:09.988Z,5.63
2022-11-12T03:02:13.748Z,5.30
2022-11-12T03:07:18.898Z,6.70
2022-11-12T03:12:22.478Z,3.97
2022-11-12T03:17:26.153Z,3.67
2022-11-12T03:22:31.138Z,3.50
2022-11-12T03:27:34.848Z,4.90
2022-11-12T03:32:38.465Z,5.40
2022-11-12T03:37:43.656Z,4.23
2022-11-12T03:42:48.411Z,4.13
2022-11-12T03:47:53.513Z,4.23
2022-11-12T03:53:00.196Z,5.63
2022-11-12T03:58:04.022Z,5.17
2022-11-12T04:03:07.790Z,4.03
2022-11-12T04:08:34.115Z,4.10
2022-11-12T04:13:38.770Z,4.23
2022-11-12T04:19:00.003Z,4.50
2022-11-12T04:24:05.371Z,3.97
2022-11-12T04:29:26.566Z,4.10
2022-11-12T04:34:30.398Z,4.40
2022-11-12T04:39:35.601Z,4.97
2022-11-12T04:44:57.388Z,4.20
2022-11-12T04:50:03.482Z,6.70
2022-11-12T04:55:09.770Z,6.17
2022-11-12T05:00:14.972Z,5.10
2022-11-12T05:05:18.526Z,6.10
2022-11-12T05:10:23.689Z,5.10
2022-11-12T05:15:27.768Z,6.43
2022-11-12T05:20:31.360Z,4.87
2022-11-12T05:25:36.578Z,4.93
2022-11-12T05:30:40.249Z,5.20
2022-11-12T05:35:43.826Z,4.67
2022-11-12T05:40:48.948Z,6.37
2022-11-12T05:45:55.455Z,5.87
2022-11-12T05:51:12.405Z,6.83
2022-11-12T05:56:18.280Z,5.27
2022-11-12T06:01:21.929Z,5.53
2022-11-12T06:11:53.877Z,3.90
2022-11-12T06:16:58.448Z,6.57
2022-11-12T06:22:07.272Z,4.10
2022-11-12T06:27:25.085Z,4.83
2022-11-12T06:32:32.753Z,3.97
2022-11-12T06:37:37.940Z,4.00
2022-11-12T06:42:46.495Z,4.00
2022-11-12T06:47:56.199Z,4.73
2022-11-12T06:53:04.988Z,5.20
2022-11-12T06:58:10.279Z,5.67
2022-11-12T07:03:16.624Z,5.50
2022-11-12T07:08:20.548Z,6.10
2022-11-12T07:13:32.975Z,5.80
2022-11-12T07:18:39.534Z,5.77
2022-11-12T07:23:43.387Z,8.40
2022-11-12T07:28:49.100Z,5.63
2022-11-12T07:33:52.913Z,6.20
2022-11-12T07:38:57.155Z,14.83
2022-11-12T07:44:02.387Z,8.40
2022-11-12T07:49:06.330Z,8.57
2022-11-12T08:01:21.876Z,6.00
2022-11-12T08:13:43.243Z,6.57
2022-11-12T08:25:07.487Z,6.20
2022-11-12T09:17:01.724Z,6.77
2022-11-12T09:33:27.437Z,7.93
2022-11-12T09:38:39.710Z,6.77
2022-11-12T09:43:50.810Z,5.70
2022-11-12T09:49:25.880Z,5.87
2022-11-12T11:09:59.296Z,4.40
2022-11-12T11:15:20.193Z,4.73
2022-11-12T11:20:28.805Z,4.50
2022-11-12T11:25:35.102Z,7.63
2022-11-12T11:30:56.115Z,5.23
2022-11-12T11:36:23.532Z,4.63
2022-11-12T11:41:49.359Z,5.37
2022-11-12T11:48:00.435Z,4.50
2022-11-12T11:53:56.980Z,6.73
2022-11-12T12:00:00.244Z,4.80
2022-11-12T12:05:25.151Z,7.10
2022-11-12T12:11:06.439Z,3.87
2022-11-12T12:16:46.980Z,4.20
2022-11-12T12:22:00.360Z,4.13
2022-11-12T12:27:23.873Z,4.00
2022-11-12T12:32:48.177Z,5.53
2022-11-12T12:38:01.815Z,4.47
2022-11-12T12:43:26.223Z,3.30
2022-11-12T12:48:42.386Z,5.67
2022-11-12T12:53:46.192Z,3.40
2022-11-12T12:59:22.900Z,3.93
2022-11-12T13:05:08.363Z,5.63
2022-11-12T13:10:54.411Z,3.77
2022-11-12T13:16:00.869Z,3.73
2022-11-12T13:21:12.802Z,2.97
2022-11-12T13:26:50.084Z,3.90
2022-11-12T13:32:29.539Z,4.00
2022-11-12T13:37:51.260Z,2.73
2022-11-12T13:43:16.084Z,3.97
2022-11-12T13:48:26.563Z,7.60
2022-11-12T13:53:33.971Z,7.03
2022-11-12T13:58:40.176Z,7.63
2022-11-12T14:03:49.213Z,5.70
2022-11-12T14:09:30.986Z,7.17
2022-11-12T14:14:53.365Z,3.50
2022-11-12T14:20:27.513Z,3.50
2022-11-12T14:25:35.192Z,3.70
2022-11-12T14:30:47.930Z,3.70
2022-11-12T14:35:53.511Z,5.73
2022-11-12T14:41:09.845Z,2.93
2022-11-12T14:46:27.576Z,2.47
2022-11-12T14:51:49.555Z,1.93
2022-11-12T14:57:14.268Z,2.87
2022-11-12T15:02:34.248Z,3.47
2022-11-12T15:07:56.463Z,2.30
2022-11-12T15:13:15.992Z,2.70
2022-11-12T15:18:25.936Z,3.47
2022-11-12T15:23:31.668Z,3.97
2022-11-12T15:28:39.171Z,2.00
2022-11-12T15:33:43.070Z,2.60
2022-11-12T15:38:52.577Z,4.17
2022-11-12T15:43:58.419Z,2.50
2022-11-12T15:49:14.811Z,1.80
2022-11-12T15:56:49.428Z,1.80
2022-11-12T16:13:42.212Z,2.00
2022-11-12T16:18:54.080Z,2.33
2022-11-12T16:24:02.292Z,1.70
2022-11-12T16:29:13.869Z,4.90
2022-11-12T16:34:20.990Z,3.17
2022-11-12T16:39:32.923Z,4.00
2022-11-12T16:44:41.264Z,2.10
2022-11-12T16:49:50.401Z,1.67
2022-11-12T16:54:58.942Z,2.10
2022-11-12T17:00:08.976Z,2.93
2022-11-12T17:05:24.555Z,4.17
2022-11-12T17:10:32.320Z,2.40
2022-11-12T17:15:37.627Z,2.60
2022-11-12T17:20:46.032Z,2.40
2022-11-12T17:26:02.870Z,1.63
2022-11-12T17:31:12.726Z,1.13
2022-11-12T17:36:18.960Z,2.03
2022-11-12T17:41:23.948Z,4.17
2022-11-12T17:46:32.738Z,3.80
2022-11-12T17:51:40.912Z,2.70
2022-11-12T17:56:45.630Z,3.23
2022-11-12T18:01:51.302Z,4.63
2022-11-12T18:06:58.372Z,2.80
2022-11-12T18:12:02.635Z,4.47
2022-11-12T18:17:09.288Z,4.17
2022-11-12T18:22:15.727Z,3.97
2022-11-12T18:27:19.864Z,4.60
2022-11-12T18:32:26.336Z,7.13
2022-11-12T18:37:30.989Z,6.20
2022-11-12T18:42:34.990Z,5.10
2022-11-12T18:47:40.834Z,2.67
2022-11-12T18:52:45.422Z,2.43
2022-11-12T18:57:49.894Z,2.60
2022-11-12T19:02:55.317Z,3.33
2022-11-12T19:07:59.443Z,3.87
2022-11-12T19:13:05.322Z,2.70
2022-11-12T19:18:11.693Z,3.97
2022-11-12T19:23:19.650Z,2.20
2022-11-12T19:28:24.657Z,2.60
2022-11-12T19:33:30.851Z,3.33
2022-11-12T19:38:35.474Z,3.73
2022-11-12T19:43:40.523Z,3.00
2022-11-12T19:48:49.455Z,3.83
2022-11-12T19:53:54.970Z,5.03
2022-11-12T19:58:59.685Z,5.50
2022-11-12T20:04:06.455Z,2.70
2022-11-12T20:09:19.883Z,3.90
2022-11-12T20:14:34.134Z,5.00
2022-11-12T20:19:43.935Z,7.00
2022-11-12T20:24:56.709Z,7.03
2022-11-12T20:30:31.178Z,8.37
2022-11-12T20:35:41.299Z,5.93
2022-11-12T20:40:48.957Z,5.30
2022-11-12T20:46:36.299Z,7.37
2022-11-12T20:51:51.464Z,5.27
2022-11-12T20:57:31.965Z,4.80
2022-11-12T21:02:43.019Z,4.30
2022-11-12T21:08:11.447Z,4.63
2022-11-12T21:13:16.314Z,6.97
2022-11-12T21:18:21.849Z,7.43
2022-11-12T21:23:30.484Z,7.93
2022-11-12T21:28:41.463Z,7.23
2022-11-12T21:33:52.669Z,5.27
2022-11-12T21:39:05.948Z,4.60
2022-11-12T21:44:17.097Z,6.17
2022-11-12T21:49:25.352Z,6.57
2022-11-12T21:54:34.890Z,7.17
2022-11-12T21:59:44.599Z,11.00
2022-11-12T22:04:48.835Z,7.53
2022-11-12T22:10:01.645Z,4.63
2022-11-12T22:15:09.303Z,4.10
2022-11-12T22:20:20.185Z,5.23
2022-11-12T22:25:25.752Z,4.83
2022-11-12T22:30:29.650Z,4.93
2022-11-12T22:35:34.362Z,6.97
2022-11-12T22:40:42.511Z,4.27
2022-11-12T22:45:46.308Z,4.57
2022-11-12T22:50:49.977Z,3.83
2022-11-12T22:55:55.097Z,6.87
2022-11-12T23:00:58.878Z,5.63
2022-11-12T23:06:05.993Z,4.80
2022-11-12T23:11:12.958Z,5.10
2022-11-12T23:16:18.901Z,6.27
2022-11-12T23:21:24.628Z,7.63
2022-11-12T23:26:32.375Z,7.93
2022-11-12T23:37:30.470Z,18.40
2022-11-12T23:42:35.533Z,18.20
2022-11-12T23:47:39.115Z,10.07
2022-11-12T23:52:42.665Z,10.50
2022-11-12T23:57:47.756Z,8.93
